Time;durP1;ratioP1;P1;durP2;ratioP2;P2;SDS_P1;SDS_P2;PMS_P1;PMS_P2;Temp;Humidity;BMP_temperature;BMP_pressure;BME280_temperature;BME280_humidity;BME280_pressure;Samples;Min_cycle;Max_cycle;Signal;HPM_P1;HPM_P2
2023/11/20 00:03:05;;;;;;;26.35;4.85;;;13.00;99.90;;;;;;10521124;28;20074;-28
2023/11/20 00:08:07;;;;;;;29.27;2.75;;;13.10;99.90;;;;;;10524635;28;20059;-28
2023/11/20 00:13:10;;;;;;;31.88;4.47;;;13.10;99.90;;;;;;10513273;28;20059;-31
2023/11/20 00:18:12;;;;;;;24.90;3.03;;;12.90;99.90;;;;;;10525330;28;20447;-29
2023/11/20 00:23:14;;;;;;;20.05;4.75;;;13.00;99.90;;;;;;10519062;28;20116;-26
2023/11/20 00:28:17;;;;;;;25.58;3.83;;;13.10;99.90;;;;;;10521559;28;20075;-31
2023/11/20 00:33:19;;;;;;;33.70;4.20;;;12.90;99.90;;;;;;10517461;28;20143;-30
2023/11/20 00:38:20;;;;;;;22.48;4.30;;;12.90;99.90;;;;;;10523578;28;20476;-28
2023/11/20 00:43:24;;;;;;;31.58;3.80;;;12.80;99.90;;;;;;10520573;28;20079;-29
2023/11/20 00:48:25;;;;;;;25.20;4.18;;;12.90;99.90;;;;;;10516351;28;20044;-29
2023/11/20 00:53:27;;;;;;;24.15;4.18;;;12.90;99.90;;;;;;10522121;28;20044;-28
2023/11/20 00:58:30;;;;;;;33.00;3.17;;;12.90;99.90;;;;;;10516550;28;20147;-28
2023/11/20 01:03:33;;;;;;;22.65;3.20;;;12.90;99.90;;;;;;10522561;28;20089;-29
2023/11/20 01:08:35;;;;;;;21.70;3.38;;;12.80;99.90;;;;;;10512417;28;20141;-28
2023/11/20 01:13:38;;;;;;;37.60;4.60;;;12.80;99.90;;;;;;10524232;28;20066;-27
2023/11/20 01:18:40;;;;;;;27.77;4.93;;;12.80;99.90;;;;;;10518207;28;20127;-29
2023/11/20 01:23:42;;;;;;;29.88;3.92;;;12.70;99.90;;;;;;10516941;28;20070;-30
2023/11/20 01:28:45;;;;;;;37.70;4.43;;;12.80;99.90;;;;;;10530257;28;20089;-30
2023/11/20 01:33:47;;;;;;;28.00;4.20;;;12.80;99.90;;;;;;10515996;28;20113;-29
2023/11/20 01:38:50;;;;;;;24.77;3.70;;;12.80;99.90;;;;;;10526026;28;20181;-29
2023/11/20 01:43:53;;;;;;;24.65;3.63;;;12.70;99.90;;;;;;10520693;28;20131;-30
2023/11/20 01:48:55;;;;;;;;;;;12.70;99.90;;;;;;10518981;28;20135;-30
2023/11/20 01:53:58;;;;;;;22.38;3.38;;;12.80;99.90;;;;;;10509580;28;20320;-28
2023/11/20 01:59:04;;;;;;;;;;;12.70;99.90;;;;;;10503477;28;20159;-27
2023/11/20 02:04:07;;;;;;;23.85;3.78;;;12.70;99.90;;;;;;10521150;28;19982;-29
2023/11/20 02:09:09;;;;;;;32.05;4.55;;;12.80;99.90;;;;;;10522517;28;20044;-29
2023/11/20 02:14:14;;;;;;;33.72;4.10;;;12.80;99.90;;;;;;10526372;28;20131;-29
2023/11/20 02:19:16;;;;;;;39.97;5.32;;;12.60;99.90;;;;;;10510092;28;20487;-29
2023/11/20 02:24:21;;;;;;;29.45;4.03;;;12.50;99.90;;;;;;10510299;28;20112;-28
2023/11/20 02:29:38;;;;;;;32.03;5.85;;;12.70;99.90;;;;;;10520446;28;20079;-29
2023/11/20 02:34:40;;;;;;;21.92;3.88;;;12.60;99.90;;;;;;10516213;28;20044;-29
2023/11/20 02:39:42;;;;;;;31.33;4.53;;;12.60;99.90;;;;;;10517270;28;20287;-27
2023/11/20 02:44:46;;;;;;;27.23;3.92;;;12.40;99.90;;;;;;10519446;28;20494;-28
2023/11/20 02:49:48;;;;;;;23.63;3.88;;;12.40;99.90;;;;;;10503591;28;20055;-29
2023/11/20 02:54:50;;;;;;;24.90;3.63;;;12.40;99.90;;;;;;10504463;28;20076;-27
2023/11/20 02:59:53;;;;;;;32.03;3.25;;;12.50;99.90;;;;;;10496215;28;20044;-28
2023/11/20 03:04:56;;;;;;;23.90;3.47;;;12.70;99.90;;;;;;10519454;28;20086;-28
2023/11/20 03:09:58;;;;;;;24.23;4.05;;;12.40;99.90;;;;;;10516768;28;20045;-28
2023/11/20 03:15:03;;;;;;;27.50;4.10;;;12.40;99.90;;;;;;10507168;28;20139;-28
2023/11/20 03:20:06;;;;;;;18.55;3.05;;;12.40;99.90;;;;;;10508854;28;20343;-28
2023/11/20 03:25:08;;;;;;;;;;;12.50;99.90;;;;;;10500386;28;20059;-27
2023/11/20 03:30:11;;;;;;;25.80;3.58;;;12.50;99.90;;;;;;10522455;28;20031;-27
2023/11/20 03:35:13;;;;;;;21.17;4.88;;;12.50;99.90;;;;;;10516911;28;20075;-28
2023/11/20 03:40:15;;;;;;;20.90;2.92;;;12.50;99.90;;;;;;10519650;28;20557;-28
2023/11/20 03:45:19;;;;;;;25.80;3.85;;;12.50;99.90;;;;;;10517807;28;20124;-28
2023/11/20 03:50:21;;;;;;;23.23;5.18;;;12.40;99.90;;;;;;10513423;28;20041;-29
2023/11/20 03:55:23;;;;;;;21.77;3.60;;;12.30;99.90;;;;;;10517779;28;20101;-28
2023/11/20 04:15:32;;;;;;;25.08;3.70;;;12.30;99.90;;;;;;10596034;27;20150;-28
2023/11/20 04:20:34;;;;;;;24.17;3.15;;;12.30;99.90;;;;;;10592632;28;20146;-29
2023/11/20 04:25:36;;;;;;;19.77;3.08;;;12.30;99.90;;;;;;10589571;28;20047;-27
2023/11/20 04:30:39;;;;;;;26.90;3.78;;;12.40;99.90;;;;;;10588798;27;20067;-29
2023/11/20 04:35:42;;;;;;;29.60;3.40;;;12.30;99.90;;;;;;10580544;27;20101;-28
2023/11/20 04:40:43;;;;;;;15.35;2.45;;;12.40;99.90;;;;;;10591919;27;20128;-29
2023/11/20 04:45:47;;;;;;;28.13;2.67;;;12.30;99.90;;;;;;10589639;28;20093;-28
2023/11/20 04:50:48;;;;;;;21.48;3.03;;;12.10;99.90;;;;;;10586260;28;20131;-28
2023/11/20 04:55:50;;;;;;;19.10;3.58;;;11.90;99.90;;;;;;10586873;28;20054;-28
2023/11/20 05:00:53;;;;;;;24.98;4.40;;;11.90;99.90;;;;;;10580731;28;20079;-29
2023/11/20 05:05:56;;;;;;;;;;;11.90;99.90;;;;;;10570613;28;20051;-29
2023/11/20 05:10:58;;;;;;;17.98;3.47;;;12.00;99.90;;;;;;10581862;27;19965;-28
2023/11/20 05:16:01;;;;;;;38.05;4.78;;;12.00;99.90;;;;;;10594867;28;20057;-28
2023/11/20 05:21:03;;;;;;;;;;;12.00;99.90;;;;;;10594896;28;20047;-29
2023/11/20 05:26:05;;;;;;;25.33;3.22;;;11.90;99.90;;;;;;10568138;28;19920;-28
2023/11/20 05:31:09;;;;;;;27.48;4.03;;;12.00;99.90;;;;;;10573283;28;20073;-29
2023/11/20 05:36:11;;;;;;;34.22;4.03;;;12.00;99.90;;;;;;10583739;27;20055;-28
2023/11/20 05:41:12;;;;;;;31.87;5.03;;;12.00;99.90;;;;;;10570372;28;20043;-28
2023/11/20 05:46:16;;;;;;;37.63;4.97;;;11.90;99.90;;;;;;10571080;28;20187;-27
2023/11/20 05:51:18;;;;;;;35.30;5.97;;;11.90;99.90;;;;;;10565899;28;20759;-28
2023/11/20 05:56:21;;;;;;;27.50;3.88;;;11.90;99.90;;;;;;10568344;28;20051;-28
2023/11/20 06:01:24;;;;;;;32.47;4.82;;;12.00;99.90;;;;;;10564740;28;20062;-28
2023/11/20 06:06:25;;;;;;;23.70;3.63;;;12.20;99.90;;;;;;10557644;28;20127;-29
2023/11/20 06:11:27;;;;;;;20.63;3.95;;;12.10;99.90;;;;;;10558942;28;20052;-28
2023/11/20 06:16:31;;;;;;;34.58;4.38;;;11.90;99.90;;;;;;10564507;28;20071;-28
2023/11/20 06:21:33;;;;;;;27.73;3.63;;;11.70;99.90;;;;;;10564666;28;20035;-28
2023/11/20 06:26:34;;;;;;;25.17;3.67;;;11.70;99.90;;;;;;10566808;28;20055;-29
2023/11/20 06:31:38;;;;;;;40.17;4.47;;;11.60;99.90;;;;;;10565614;27;20043;-27
2023/11/20 06:36:40;;;;;;;34.50;5.07;;;11.60;99.90;;;;;;10561264;27;20054;-27
2023/11/20 06:41:42;;;;;;;30.10;4.53;;;11.60;99.90;;;;;;10557777;28;20625;-28
2023/11/20 06:46:45;;;;;;;29.45;3.47;;;11.80;99.90;;;;;;10560394;28;20047;-28
2023/11/20 06:51:47;;;;;;;25.70;4.78;;;11.80;99.90;;;;;;10536090;28;20048;-30
2023/11/20 06:56:49;;;;;;;34.20;4.43;;;12.00;99.90;;;;;;10563184;28;20048;-28
2023/11/20 07:01:52;;;;;;;22.23;3.58;;;11.80;99.90;;;;;;10544397;28;20047;-28
2023/11/20 07:06:54;;;;;;;23.92;4.45;;;11.80;99.90;;;;;;10541073;28;20499;-35
2023/11/20 07:11:56;;;;;;;19.00;3.30;;;11.90;99.90;;;;;;10561236;28;20071;-32
2023/11/20 07:16:59;;;;;;;22.58;4.65;;;11.80;99.90;;;;;;10556573;28;20047;-27
2023/11/20 07:22:01;;;;;;;31.23;4.22;;;11.70;99.90;;;;;;10559022;28;20079;-28
2023/11/20 07:27:03;;;;;;;36.83;3.63;;;11.70;99.90;;;;;;10552033;28;20070;-28
2023/11/20 07:32:07;;;;;;;33.45;5.00;;;12.10;99.90;;;;;;10552606;27;20042;-27
2023/11/20 07:37:09;;;;;;;18.05;3.97;;;11.90;99.90;;;;;;10557378;27;20420;-28
2023/11/20 07:42:11;;;;;;;34.33;4.50;;;12.00;99.90;;;;;;10541481;28;20076;-28
2023/11/20 07:47:14;;;;;;;32.35;4.63;;;11.70;99.90;;;;;;10563905;28;20046;-29
2023/11/20 07:52:15;;;;;;;;;;;11.30;99.90;;;;;;10538207;28;20155;-28
2023/11/20 07:57:17;;;;;;;31.90;3.70;;;11.00;99.90;;;;;;10533001;28;20517;-28
2023/11/20 08:02:20;;;;;;;12.90;2.22;;;11.10;99.90;;;;;;10540338;28;20059;-28
2023/11/20 08:07:22;;;;;;;33.88;5.78;;;12.70;99.90;;;;;;10530548;28;20153;-31
2023/11/20 08:12:24;;;;;;;20.27;3.42;;;12.20;99.90;;;;;;10554178;28;20141;-28
2023/11/20 08:17:27;;;;;;;24.90;3.67;;;12.40;99.90;;;;;;10557728;28;20082;-29
2023/11/20 08:22:29;;;;;;;25.40;3.60;;;12.10;99.90;;;;;;10545974;28;20486;-33
2023/11/20 08:27:30;;;;;;;17.50;2.88;;;12.00;99.90;;;;;;10539735;28;20479;-29
2023/11/20 08:32:34;;;;;;;27.77;3.85;;;12.10;99.90;;;;;;10546130;28;20089;-28
2023/11/20 08:37:35;;;;;;;24.63;3.40;;;12.40;99.90;;;;;;10550951;28;20055;-29
2023/11/20 08:42:37;;;;;;;20.38;3.33;;;12.60;99.90;;;;;;10562152;28;20074;-28
2023/11/20 08:47:40;;;;;;;16.40;2.22;;;12.40;99.90;;;;;;10541852;28;20071;-28
2023/11/20 08:52:42;;;;;;;19.13;2.97;;;12.60;99.90;;;;;;10531752;28;20189;-28
2023/11/20 08:57:44;;;;;;;17.90;2.67;;;11.60;99.90;;;;;;10529535;28;20471;-28
2023/11/20 09:02:47;;;;;;;16.05;2.03;;;11.50;99.90;;;;;;10542415;28;20543;-28
2023/11/20 09:07:49;;;;;;;24.48;3.28;;;11.90;99.90;;;;;;10562671;28;20604;-28
2023/11/20 09:12:51;;;;;;;18.38;3.75;;;11.80;99.90;;;;;;10566355;28;20075;-30
2023/11/20 09:17:54;;;;;;;15.20;3.03;;;12.30;99.90;;;;;;10567188;28;20063;-29
2023/11/20 09:22:56;;;;;;;20.63;2.42;;;12.70;99.90;;;;;;10565566;27;20051;-29
2023/11/20 09:27:58;;;;;;;12.05;2.38;;;12.60;99.90;;;;;;10571201;28;20112;-29
2023/11/20 09:33:01;;;;;;;14.95;3.85;;;13.10;99.90;;;;;;10558111;27;20124;-29
2023/11/20 09:38:04;;;;;;;19.88;2.95;;;13.20;99.90;;;;;;10544264;28;20496;-27
2023/11/20 09:43:09;;;;;;;20.35;3.30;;;12.70;99.90;;;;;;10560870;28;20134;-28
2023/11/20 09:48:14;;;;;;;16.92;2.65;;;12.60;99.90;;;;;;10556855;28;20737;-28
2023/11/20 09:53:16;;;;;;;24.60;2.67;;;12.80;99.90;;;;;;10556801;28;20573;-30
2023/11/20 09:58:17;;;;;;;16.67;2.63;;;12.50;99.90;;;;;;10563245;28;20048;-28
2023/11/20 10:03:21;;;;;;;19.17;3.53;;;12.20;99.90;;;;;;10553896;28;20174;-27
2023/11/20 10:08:23;;;;;;;32.28;4.78;;;12.20;99.90;;;;;;10543002;28;20092;-32
2023/11/20 10:13:27;;;;;;;17.35;2.70;;;12.30;99.90;;;;;;10564964;28;20052;-31
2023/11/20 10:18:30;;;;;;;17.58;2.42;;;12.70;99.90;;;;;;10548070;28;20461;-29
2023/11/20 10:23:32;;;;;;;22.98;3.28;;;13.10;99.90;;;;;;10581885;27;20050;-28
2023/11/20 10:28:37;;;;;;;23.38;3.67;;;12.20;99.90;;;;;;10549346;28;20059;-28
2023/11/20 10:33:41;;;;;;;21.33;4.03;;;12.40;99.90;;;;;;10592557;27;20075;-29
2023/11/20 10:38:43;;;;;;;29.33;3.90;;;12.80;99.90;;;;;;10550909;28;20055;-28
2023/11/20 10:43:45;;;;;;;14.63;3.03;;;12.70;99.90;;;;;;10562558;28;20499;-28
2023/11/20 10:48:48;;;;;;;32.85;3.72;;;12.70;99.90;;;;;;10562049;28;20147;-29
2023/11/20 10:53:59;;;;;;;27.83;3.83;;;12.20;99.90;;;;;;10542106;28;20039;-27
2023/11/20 10:59:02;;;;;;;26.08;2.97;;;12.90;99.90;;;;;;10556959;28;20057;-28
2023/11/20 11:04:05;;;;;;;21.75;3.15;;;12.50;99.90;;;;;;10555695;28;20103;-28
2023/11/20 11:09:07;;;;;;;14.60;2.40;;;12.70;99.90;;;;;;10539258;28;20518;-28
2023/11/20 11:14:10;;;;;;;24.10;3.60;;;13.10;99.90;;;;;;10558211;28;20055;-28
2023/11/20 11:19:14;;;;;;;23.90;3.08;;;13.60;99.90;;;;;;10543075;28;20043;-28
2023/11/20 11:24:18;;;;;;;32.45;3.58;;;12.70;99.90;;;;;;10550156;27;20043;-28
2023/11/20 11:29:25;;;;;;;20.80;3.03;;;13.10;99.90;;;;;;10546672;28;20119;-31
2023/11/20 11:34:48;;;;;;;15.40;2.60;;;13.00;99.90;;;;;;10576265;27;20452;-29
2023/11/20 11:39:59;;;;;;;27.70;3.60;;;13.20;99.90;;;;;;10552150;28;20048;-28
2023/11/20 11:45:05;;;;;;;40.47;3.80;;;12.70;99.90;;;;;;10560082;28;20579;-29
2023/11/20 11:50:09;;;;;;;18.02;3.03;;;12.90;99.90;;;;;;10550769;28;20087;-29
2023/11/20 11:55:25;;;;;;;12.23;2.80;;;13.40;99.90;;;;;;10527905;28;20056;-28
2023/11/20 12:00:27;;;;;;;19.85;2.90;;;14.00;99.90;;;;;;10551254;28;20079;-28
2023/11/20 12:05:30;;;;;;;21.45;3.33;;;13.90;99.90;;;;;;10523964;28;20075;-26
2023/11/20 12:10:49;;;;;;;14.43;2.90;;;13.30;99.90;;;;;;10536383;28;20510;-30
2023/11/20 12:15:52;;;;;;;14.02;2.65;;;13.40;99.90;;;;;;10552685;28;20058;-28
2023/11/20 12:21:07;;;;;;;24.50;3.67;;;13.80;99.90;;;;;;10547760;28;20078;-28
2023/11/20 12:26:10;;;;;;;22.02;2.97;;;13.70;99.90;;;;;;10547787;28;20414;-28
2023/11/20 12:31:15;;;;;;;15.20;3.53;;;13.20;99.90;;;;;;10545350;28;20071;-29
2023/11/20 12:36:19;;;;;;;17.83;2.75;;;13.30;99.90;;;;;;10567875;28;20047;-27
2023/11/20 12:41:26;;;;;;;9.32;2.63;;;13.40;99.90;;;;;;10559895;28;20059;-28
2023/11/20 12:46:29;;;;;;;16.20;2.40;;;13.30;99.90;;;;;;10563182;28;20051;-32
2023/11/20 12:51:32;;;;;;;12.83;2.07;;;12.90;99.90;;;;;;10568948;28;20059;-28
2023/11/20 12:56:34;;;;;;;9.70;2.85;;;13.20;99.90;;;;;;10562450;28;20898;-28
2023/11/20 13:01:36;;;;;;;9.45;2.83;;;13.80;99.90;;;;;;10552616;28;20128;-27
2023/11/20 13:06:40;;;;;;;5.22;1.85;;;13.80;99.90;;;;;;10546528;28;20130;-29
2023/11/20 13:11:42;;;;;;;12.15;2.55;;;13.40;99.90;;;;;;10556754;28;20376;-27
2023/11/20 13:16:43;;;;;;;6.53;1.67;;;13.70;99.90;;;;;;10556530;28;20043;-28
2023/11/20 13:21:48;;;;;;;11.40;2.20;;;14.40;99.90;;;;;;10555916;27;20055;-28
2023/11/20 13:26:50;;;;;;;8.43;1.83;;;14.30;99.90;;;;;;10541421;27;20047;-26
2023/11/20 13:31:52;;;;;;;9.45;1.52;;;14.10;99.90;;;;;;10560563;27;20043;-26
2023/11/20 13:36:55;;;;;;;6.70;1.85;;;14.30;99.90;;;;;;10566354;27;20097;-28
2023/11/20 13:41:57;;;;;;;11.07;2.35;;;13.90;99.90;;;;;;10564486;28;20463;-28
2023/11/20 13:46:59;;;;;;;9.90;2.17;;;13.40;99.90;;;;;;10567010;27;20040;-28
2023/11/20 13:52:02;;;;;;;9.50;2.05;;;13.70;99.90;;;;;;10547590;27;20440;-29
2023/11/20 13:57:05;;;;;;;9.35;2.55;;;13.70;99.90;;;;;;10540932;28;20044;-28
2023/11/20 14:02:07;;;;;;;16.13;2.87;;;13.60;99.90;;;;;;10558533;27;20166;-27
2023/11/20 14:07:10;;;;;;;9.57;1.98;;;13.90;99.90;;;;;;10545503;28;20473;-28
2023/11/20 14:12:12;;;;;;;7.75;1.80;;;14.50;99.90;;;;;;10557994;28;20138;-28
2023/11/20 14:17:14;;;;;;;11.63;1.90;;;13.80;99.90;;;;;;10549809;28;20047;-29
2023/11/20 14:22:18;;;;;;;11.85;2.17;;;14.50;99.90;;;;;;10562201;28;20046;-29
2023/11/20 14:27:20;;;;;;;10.20;2.60;;;13.40;99.90;;;;;;10562434;28;20043;-28
2023/11/20 14:32:21;;;;;;;12.73;2.05;;;13.60;99.90;;;;;;10564395;27;20040;-28
2023/11/20 14:37:25;;;;;;;6.95;1.75;;;13.40;99.90;;;;;;10545632;28;20482;-29
2023/11/20 14:42:26;;;;;;;8.75;1.70;;;13.50;99.90;;;;;;10547246;28;21560;-29
2023/11/20 14:47:28;;;;;;;7.63;1.88;;;13.10;99.90;;;;;;10547824;28;20051;-31
2023/11/20 14:52:31;;;;;;;5.15;1.90;;;13.10;99.90;;;;;;10539840;28;20432;-29
2023/11/20 14:57:34;;;;;;;10.90;1.92;;;13.70;99.90;;;;;;10548282;28;20078;-27
2023/11/20 15:02:37;;;;;;;5.28;1.95;;;13.80;99.90;;;;;;10552061;28;20127;-28
2023/11/20 15:07:41;;;;;;;6.18;1.70;;;14.50;99.90;;;;;;10547203;28;20135;-27
2023/11/20 15:12:44;;;;;;;8.10;2.05;;;14.90;99.90;;;;;;10543418;28;20108;-28
2023/11/20 15:17:47;;;;;;;3.13;1.50;;;15.80;99.90;;;;;;10559867;28;20044;-26
2023/11/20 15:22:50;;;;;;;;;;;16.70;99.90;;;;;;10570320;27;20143;-29
2023/11/20 15:27:52;;;;;;;4.40;1.50;;;17.00;99.90;;;;;;10534309;28;19920;-29
2023/11/20 15:32:56;;;;;;;2.90;1.30;;;17.10;99.90;;;;;;10553566;27;20133;-28
2023/11/20 15:37:59;;;;;;;3.85;1.00;;;17.10;99.90;;;;;;10572041;27;20051;-29
2023/11/20 15:43:01;;;;;;;7.03;1.42;;;17.30;99.90;;;;;;10566996;27;20131;-28
2023/11/20 15:48:04;;;;;;;3.60;1.10;;;17.50;99.90;;;;;;10551754;28;20054;-32
2023/11/20 15:53:07;;;;;;;2.80;0.90;;;17.50;99.90;;;;;;10552766;28;20043;-28
2023/11/20 15:58:10;;;;;;;4.47;1.38;;;17.50;99.90;;;;;;10550215;28;20370;-28
2023/11/20 16:03:17;;;;;;;5.93;1.20;;;16.60;99.90;;;;;;10557592;28;20380;-30
2023/11/20 16:08:20;;;;;;;3.03;0.80;;;17.10;99.90;;;;;;10543033;28;20044;-29
2023/11/20 16:13:22;;;;;;;2.42;0.75;;;17.20;99.90;;;;;;10550041;27;20227;-28
2023/11/20 16:18:24;;;;;;;4.28;0.93;;;17.40;99.90;;;;;;10554360;28;20051;-29
2023/11/20 16:23:27;;;;;;;3.83;0.90;;;17.70;99.90;;;;;;10543653;28;20052;-28
2023/11/20 16:28:29;;;;;;;5.43;1.20;;;17.70;99.90;;;;;;10541455;28;20076;-29
2023/11/20 16:33:31;;;;;;;8.23;1.03;;;17.80;99.90;;;;;;10540281;28;20071;-28
2023/11/20 16:38:34;;;;;;;4.00;1.03;;;17.80;99.90;;;;;;10540158;28;20056;-28
2023/11/20 16:43:37;;;;;;;1.45;0.70;;;17.90;99.90;;;;;;10546885;28;20054;-28
2023/11/20 16:48:38;;;;;;;3.08;0.80;;;17.90;99.90;;;;;;10536482;28;20063;-28
2023/11/20 16:53:41;;;;;;;6.47;0.93;;;18.00;99.90;;;;;;10524801;28;20120;-28
2023/11/20 16:58:44;;;;;;;4.95;0.88;;;18.00;99.90;;;;;;10540781;28;20596;-27
2023/11/20 17:03:45;;;;;;;3.83;0.80;;;17.90;99.90;;;;;;10526234;28;20098;-34
2023/11/20 17:08:49;;;;;;;3.60;1.33;;;18.00;99.90;;;;;;10536130;28;20217;-28
2023/11/20 17:13:52;;;;;;;18.98;3.42;;;17.90;99.90;;;;;;10549771;28;20063;-27
2023/11/20 17:18:54;;;;;;;15.50;4.25;;;18.00;99.90;;;;;;10538831;28;20056;-27
2023/11/20 17:23:57;;;;;;;29.05;5.43;;;18.10;99.90;;;;;;10564896;28;20053;-27
2023/11/20 17:28:59;;;;;;;25.35;6.18;;;18.10;99.90;;;;;;10557693;28;20502;-29
2023/11/20 17:34:01;;;;;;;28.38;7.50;;;18.10;99.90;;;;;;10563858;28;20048;-28
2023/11/20 17:39:04;;;;;;;20.35;6.72;;;18.10;99.90;;;;;;10550027;28;20075;-30
2023/11/20 17:44:06;;;;;;;21.52;7.00;;;18.10;99.90;;;;;;10552220;28;20044;-28
2023/11/20 17:49:08;;;;;;;22.67;7.13;;;18.10;99.90;;;;;;10548017;28;20055;-28
2023/11/20 17:54:11;;;;;;;18.90;5.37;;;18.10;99.90;;;;;;10531821;28;20143;-28
2023/11/20 17:59:13;;;;;;;14.07;5.20;;;17.70;99.80;;;;;;10538298;27;20055;-28
2023/11/20 18:04:16;;;;;;;11.90;4.78;;;17.30;99.90;;;;;;10535502;28;20058;-29
2023/11/20 18:09:21;;;;;;;13.52;6.05;;;16.90;99.90;;;;;;10538581;28;20938;-31
2023/11/20 18:14:23;;;;;;;18.67;7.05;;;16.80;99.90;;;;;;10540519;28;20055;-27
2023/11/20 18:19:25;;;;;;;13.27;5.72;;;16.40;99.90;;;;;;10535197;27;20040;-30
2023/11/20 18:24:28;;;;;;;15.65;7.63;;;15.70;99.90;;;;;;10539450;28;20043;-28
2023/11/20 18:29:30;;;;;;;12.48;6.72;;;15.80;99.90;;;;;;10538508;28;20183;-28
2023/11/20 18:34:32;;;;;;;14.40;6.40;;;15.40;99.90;;;;;;10538323;27;20054;-27
2023/11/20 18:39:36;;;;;;;15.33;5.43;;;15.00;99.90;;;;;;10538748;28;20189;-30
2023/11/20 18:44:38;;;;;;;16.05;8.35;;;14.40;99.90;;;;;;10537160;28;20597;-28
2023/11/20 18:49:40;;;;;;;11.20;5.38;;;14.60;99.90;;;;;;10539328;28;20228;-27
2023/11/20 18:54:43;;;;;;;11.38;6.32;;;15.80;99.90;;;;;;10538330;28;20047;-28
2023/11/20 18:59:45;;;;;;;11.88;4.88;;;16.80;99.90;;;;;;10534399;28;20140;-28
2023/11/20 19:04:47;;;;;;;10.17;4.53;;;17.30;99.90;;;;;;10535102;28;20406;-28
2023/11/20 19:09:51;;;;;;;10.93;4.28;;;17.40;99.90;;;;;;10538317;28;20461;-28
2023/11/20 19:14:53;;;;;;;10.93;5.25;;;17.50;99.90;;;;;;10534671;28;20067;-28
2023/11/20 19:19:55;;;;;;;10.27;4.18;;;17.60;99.90;;;;;;10538304;28;20078;-28
2023/11/20 19:24:59;;;;;;;9.50;4.50;;;17.70;99.90;;;;;;10541518;27;20079;-27
2023/11/20 19:30:01;;;;;;;8.98;4.25;;;17.80;99.90;;;;;;10538870;28;20077;-28
2023/11/20 19:35:04;;;;;;;11.90;4.73;;;17.70;99.90;;;;;;10537736;28;20119;-27
2023/11/20 19:40:10;;;;;;;11.40;4.57;;;17.80;99.90;;;;;;10539252;28;20051;-28
2023/11/20 19:45:12;;;;;;;10.43;4.30;;;17.80;99.90;;;;;;10529965;28;20042;-29
2023/11/20 19:50:14;;;;;;;9.18;4.78;;;17.80;99.90;;;;;;10537184;28;20082;-28
2023/11/20 19:55:17;;;;;;;8.13;3.83;;;17.80;99.90;;;;;;10538925;28;20154;-29
2023/11/20 20:00:19;;;;;;;10.80;4.13;;;17.80;99.90;;;;;;10535793;28;20132;-28
2023/11/20 20:05:21;;;;;;;11.68;4.43;;;17.80;99.90;;;;;;10537380;28;20082;-28
2023/11/20 20:10:25;;;;;;;9.13;3.97;;;17.80;99.90;;;;;;10536556;28;20058;-28
2023/11/20 20:15:27;;;;;;;10.50;4.13;;;17.90;99.90;;;;;;10529898;28;20493;-29
2023/11/20 20:20:28;;;;;;;11.75;4.40;;;17.80;99.90;;;;;;10535500;28;20055;-28
2023/11/20 20:25:32;;;;;;;8.20;4.00;;;17.80;99.90;;;;;;10531399;28;20491;-28
2023/11/20 20:30:34;;;;;;;18.63;5.13;;;17.80;99.90;;;;;;10530430;28;20513;-28
2023/11/20 20:35:37;;;;;;;14.23;6.13;;;17.80;99.90;;;;;;10533668;28;20051;-27
2023/11/20 20:40:42;;;;;;;14.43;4.97;;;17.80;99.90;;;;;;10525629;28;20055;-29
2023/11/20 20:45:44;;;;;;;13.73;5.28;;;17.80;99.90;;;;;;10528080;28;20052;-28
2023/11/20 20:50:47;;;;;;;10.17;5.03;;;17.70;99.90;;;;;;10532964;28;20104;-28
2023/11/20 20:55:50;;;;;;;16.10;6.32;;;17.70;99.90;;;;;;10534748;28;20855;-29
2023/11/20 21:00:52;;;;;;;16.52;6.68;;;17.70;99.90;;;;;;10536777;28;20180;-29
2023/11/20 21:05:54;;;;;;;18.23;5.73;;;17.70;99.90;;;;;;10539572;28;20851;-28
2023/11/20 21:11:01;;;;;;;12.82;5.65;;;17.70;99.90;;;;;;10541555;28;20589;-28
2023/11/20 21:16:03;;;;;;;19.25;6.65;;;17.70;99.90;;;;;;10543361;27;20095;-29
2023/11/20 21:21:05;;;;;;;12.90;5.80;;;17.70;99.90;;;;;;10536376;28;20086;-28
2023/11/20 21:26:11;;;;;;;12.02;5.88;;;17.60;99.90;;;;;;10544546;28;20126;-29
2023/11/20 21:31:13;;;;;;;14.93;5.93;;;17.60;99.90;;;;;;10539811;28;20136;-28
2023/11/20 21:36:21;;;;;;;19.73;6.33;;;17.60;99.90;;;;;;10538697;27;20040;-27
2023/11/20 21:41:24;;;;;;;13.25;6.13;;;17.60;99.90;;;;;;10541819;27;20477;-28
2023/11/20 21:46:26;;;;;;;16.25;6.55;;;17.60;99.90;;;;;;10544942;27;20181;-28
2023/11/20 21:51:27;;;;;;;12.80;6.50;;;17.60;99.90;;;;;;10545555;27;20051;-29
2023/11/20 21:56:30;;;;;;;15.43;5.93;;;17.60;99.90;;;;;;10543438;27;20459;-28
2023/11/20 22:01:32;;;;;;;13.98;6.35;;;17.60;99.90;;;;;;10545147;27;20047;-28
2023/11/20 22:06:35;;;;;;;16.30;6.80;;;17.60;99.90;;;;;;10543868;28;20040;-28
2023/11/20 22:11:39;;;;;;;10.63;6.43;;;17.60;99.90;;;;;;10546606;28;20052;-27
2023/11/20 22:16:41;;;;;;;15.27;6.35;;;17.60;99.90;;;;;;10546656;28;20044;-28
2023/11/20 22:21:43;;;;;;;13.77;6.17;;;17.60;99.90;;;;;;10549387;28;20399;-29
2023/11/20 22:26:46;;;;;;;13.18;6.25;;;17.60;99.90;;;;;;10549541;27;20059;-28
2023/11/20 22:31:48;;;;;;;17.17;6.78;;;17.60;99.90;;;;;;10546364;27;20051;-28
2023/11/20 22:36:50;;;;;;;18.40;6.47;;;17.60;99.90;;;;;;10547836;27;20145;-28
2023/11/20 22:41:53;;;;;;;11.57;5.93;;;17.60;99.90;;;;;;10543347;28;20058;-28
2023/11/20 22:46:55;;;;;;;14.38;6.53;;;17.50;99.90;;;;;;10537205;28;20094;-31
2023/11/20 22:51:57;;;;;;;14.15;6.85;;;17.50;99.90;;;;;;10552123;28;20059;-27
2023/11/20 22:57:00;;;;;;;15.33;6.80;;;17.50;99.90;;;;;;10551210;28;20844;-30
2023/11/20 23:02:02;;;;;;;13.68;5.82;;;17.50;99.90;;;;;;10545870;28;20043;-27
2023/11/20 23:07:05;;;;;;;13.23;6.03;;;17.50;99.90;;;;;;10546136;28;20051;-27
2023/11/20 23:12:08;;;;;;;10.98;4.95;;;17.50;99.90;;;;;;10548089;27;20641;-30
2023/11/20 23:17:11;;;;;;;12.40;3.15;;;17.50;99.90;;;;;;10543087;28;20884;-27
2023/11/20 23:22:12;;;;;;;12.55;5.88;;;16.70;99.40;;;;;;10544671;28;20064;-30
2023/11/20 23:27:16;;;;;;;12.50;6.20;;;17.00;99.90;;;;;;10542453;28;20051;-28
2023/11/20 23:32:18;;;;;;;10.82;5.47;;;17.20;99.90;;;;;;10543042;27;20604;-28
2023/11/20 23:37:19;;;;;;;12.23;5.87;;;17.30;99.90;;;;;;10539127;27;20043;-28
2023/11/20 23:42:23;;;;;;;10.07;5.60;;;17.40;99.90;;;;;;10539823;28;20455;-27
2023/11/20 23:47:26;;;;;;;11.00;5.20;;;17.40;99.90;;;;;;10542570;28;20048;-30
2023/11/20 23:52:28;;;;;;;12.00;5.28;;;17.30;99.90;;;;;;10543053;28;20118;-28
2023/11/20 23:57:32;;;;;;;13.83;6.47;;;16.80;99.90;;;;;;10541545;28;20044;-30
